Quick Links (Output Below):   Max & Min Temps   /   Climate Reports   /   Zone Forecasts
River Forecasts   /   Forestry Forecasts   /   Aviation Forecasts   /   Radars   /   Features

Terminal Aerodrome Forecast (Hot Springs)

Pick a Site:
Arkadelphia | El Dorado | Fayetteville | Fort Smith | Harrison | Highfill | Hot Springs | Jonesboro
Little Rock | Monticello | Mountain Home | Pine Bluff | Texarkana
 Forecast 

KHOT 020520Z 0206/0306 15004KT P6SM SCT050 SCT250
     FM021000 VRB03KT 5SM BR OVC015
     FM021400 16006KT P6SM BKN025 OVC050
     FM021800 18008G16KT P6SM VCTS BKN050CB
     FM030300 20005KT 5SM TSRA BR OVC030CB=


 Latest METARs (Observations) 
How to Decode METARs
08Z KHOT 020753Z AUTO 17005KT 10SM FEW015 SCT024 BKN035 24/22 A2986
         RMK AO2 SLP104 T02390217
         
07Z KHOT 020653Z AUTO 17009KT 10SM BKN029 BKN055 25/22 A2987 RMK AO2
         SLP107 T02500217
         
06Z KHOT 020553Z AUTO VRB04KT 10SM FEW050 25/21 A2986 RMK AO2 SLP103
         T02500211 10283 20239 403110206 58000
         
05Z KHOT 020453Z AUTO 17005KT 10SM BKN050 26/21 A2986 RMK AO2 SLP105
         T02560211
         
04Z KHOT 020353Z AUTO 18005KT 10SM CLR 26/21 A2987 RMK AO2 SLP106
         T02560211
         
03Z KHOT 020253Z AUTO VRB06KT 10SM CLR 26/21 A2986 RMK AO2 SLP104
         T02610211 51010
         
02Z KHOT 020153Z AUTO 10003KT 10SM CLR 25/21 A2985 RMK AO2 SLP103
         T02500206
         
01Z KHOT 020053Z AUTO 12003KT 10SM CLR 26/20 A2984 RMK AO2 SLP098
         T02610200
         
00Z KHOT 012353Z AUTO 00000KT 10SM CLR 28/21 A2983 RMK AO2 SLP094
         T02830206 10311 20283 53003
         
***** Today's Observations (Above) *****


23Z KHOT 012253Z AUTO 18007KT 10SM FEW039 29/21 A2982 RMK AO2 SLP090
         T02940206
         
***** Yesterday's Observations (Above) *****


Back to Main Page
http://www.srh.noaa.gov/lzk/qfcst.php

USA.gov is the U.S. government's official web portal to all federal, state and local government web resources and services.